sensor_id;sensor_type;location;lat;lon;timestamp;pressure;altitude;pressure_sealevel;temperature;humidity
29417;BME280;28421;51.030;4.006;2023-05-01T03:15:34;101525.50;;;12.57;69.91
29417;BME280;28421;51.030;4.006;2023-05-01T03:17:59;101513.19;;;12.47;69.79
29417;BME280;28421;51.030;4.006;2023-05-01T03:20:25;101519.25;;;12.49;69.86
29417;BME280;28421;51.030;4.006;2023-05-01T03:22:50;101504.91;;;12.48;69.74
29417;BME280;28421;51.030;4.006;2023-05-01T03:25:16;101521.97;;;12.49;69.91
29417;BME280;28421;51.030;4.006;2023-05-01T03:27:42;101496.34;;;12.36;69.57
29417;BME280;28421;51.030;4.006;2023-05-01T03:30:08;101493.97;;;12.41;69.14
29417;BME280;28421;51.030;4.006;2023-05-01T03:32:37;101450.31;;;12.13;69.20
29417;BME280;28421;51.030;4.006;2023-05-01T03:35:05;101517.03;;;12.52;69.43
29417;BME280;28421;51.030;4.006;2023-05-01T03:37:31;101482.00;;;12.28;70.13
29417;BME280;28421;51.030;4.006;2023-05-01T03:39:58;101464.13;;;12.18;70.04
29417;BME280;28421;51.030;4.006;2023-05-01T03:42:42;101482.84;;;12.36;69.77
29417;BME280;28421;51.030;4.006;2023-05-01T03:45:16;101492.09;;;12.34;69.94
29417;BME280;28421;51.030;4.006;2023-05-01T03:47:41;101482.63;;;12.05;70.71
29417;BME280;28421;51.030;4.006;2023-05-01T03:50:07;101500.00;;;12.27;70.57
29417;BME280;28421;51.030;4.006;2023-05-01T03:52:35;101512.16;;;12.39;70.38
29417;BME280;28421;51.030;4.006;2023-05-01T03:55:01;101453.50;;;12.01;70.26
29417;BME280;28421;51.030;4.006;2023-05-01T03:57:40;101468.34;;;12.21;70.46
29417;BME280;28421;51.030;4.006;2023-05-01T04:00:06;101492.94;;;12.26;71.29
29417;BME280;28421;51.030;4.006;2023-05-01T04:02:40;101479.63;;;12.25;71.30
29417;BME280;28421;51.030;4.006;2023-05-01T04:05:07;101498.53;;;12.41;71.24
29417;BME280;28421;51.030;4.006;2023-05-01T04:07:33;101471.53;;;12.25;71.49
29417;BME280;28421;51.030;4.006;2023-05-01T04:09:59;101487.03;;;12.31;71.18
29417;BME280;28421;51.030;4.006;2023-05-01T04:12:25;101478.28;;;12.29;71.52
29417;BME280;28421;51.030;4.006;2023-05-01T04:14:50;101480.47;;;12.41;71.28
29417;BME280;28421;51.030;4.006;2023-05-01T04:17:16;101473.41;;;12.40;71.72
29417;BME280;28421;51.030;4.006;2023-05-01T04:19:41;101483.34;;;12.40;72.13
29417;BME280;28421;51.030;4.006;2023-05-01T04:22:07;101491.78;;;12.53;72.12
29417;BME280;28421;51.030;4.006;2023-05-01T04:24:35;101459.94;;;12.24;73.22
29417;BME280;28421;51.030;4.006;2023-05-01T04:27:01;101480.47;;;12.33;72.93
29417;BME280;28421;51.030;4.006;2023-05-01T04:29:26;101453.19;;;12.20;73.42
29417;BME280;28421;51.030;4.006;2023-05-01T04:31:52;101442.22;;;12.13;73.34
29417;BME280;28421;51.030;4.006;2023-05-01T04:34:18;101501.56;;;12.54;73.29
29417;BME280;28421;51.030;4.006;2023-05-01T04:36:44;101486.91;;;12.49;73.32
29417;BME280;28421;51.030;4.006;2023-05-01T04:39:10;101478.63;;;12.42;73.42
29417;BME280;28421;51.030;4.006;2023-05-01T04:41:36;101477.09;;;12.39;73.93
29417;BME280;28421;51.030;4.006;2023-05-01T04:44:03;101467.84;;;12.26;74.23
29417;BME280;28421;51.030;4.006;2023-05-01T04:46:28;101477.91;;;11.91;76.97
29417;BME280;28421;51.030;4.006;2023-05-01T04:48:54;101487.72;;;11.58;78.58
29417;BME280;28421;51.030;4.006;2023-05-01T04:51:19;101479.84;;;11.73;78.21
29417;BME280;28421;51.030;4.006;2023-05-01T04:53:46;101483.38;;;11.73;77.28
29417;BME280;28421;51.030;4.006;2023-05-01T04:56:21;101497.78;;;11.98;76.57
29417;BME280;28421;51.030;4.006;2023-05-01T04:58:49;101459.72;;;12.01;75.89
29417;BME280;28421;51.030;4.006;2023-05-01T05:01:19;101485.69;;;12.27;75.08
29417;BME280;28421;51.030;4.006;2023-05-01T05:03:45;101472.56;;;12.32;74.36
29417;BME280;28421;51.030;4.006;2023-05-01T05:06:12;101504.56;;;12.59;74.07
29417;BME280;28421;51.030;4.006;2023-05-01T05:08:38;101484.19;;;12.57;73.29
29417;BME280;28421;51.030;4.006;2023-05-01T05:11:08;101491.91;;;12.68;73.60
29417;BME280;28421;51.030;4.006;2023-05-01T05:13:52;101478.28;;;12.78;73.21
29417;BME280;28421;51.030;4.006;2023-05-01T05:16:18;101514.00;;;12.96;72.73
29417;BME280;28421;51.030;4.006;2023-05-01T05:18:44;101494.78;;;12.75;73.14
29417;BME280;28421;51.030;4.006;2023-05-01T05:21:09;101498.63;;;13.05;73.12
29417;BME280;28421;51.030;4.006;2023-05-01T05:23:35;101487.84;;;12.88;73.08
29417;BME280;28421;51.030;4.006;2023-05-01T05:26:01;101490.88;;;12.85;73.14
29417;BME280;28421;51.030;4.006;2023-05-01T05:28:28;101517.81;;;13.10;72.94
29417;BME280;28421;51.030;4.006;2023-05-01T05:30:54;101469.81;;;12.81;72.78
29417;BME280;28421;51.030;4.006;2023-05-01T05:33:23;101502.34;;;12.96;73.54
29417;BME280;28421;51.030;4.006;2023-05-01T05:35:52;101517.34;;;13.06;73.19
29417;BME280;28421;51.030;4.006;2023-05-01T05:38:22;101497.59;;;13.06;72.88
29417;BME280;28421;51.030;4.006;2023-05-01T05:40:50;101470.13;;;13.02;72.45
29417;BME280;28421;51.030;4.006;2023-05-01T05:43:18;101474.28;;;13.13;72.24
29417;BME280;28421;51.030;4.006;2023-05-01T05:45:44;101509.22;;;13.23;72.15
29417;BME280;28421;51.030;4.006;2023-05-01T05:48:10;101499.75;;;13.27;72.62
29417;BME280;28421;51.030;4.006;2023-05-01T05:50:38;101470.91;;;13.19;72.89
29417;BME280;28421;51.030;4.006;2023-05-01T05:53:04;101487.78;;;13.29;72.44
29417;BME280;28421;51.030;4.006;2023-05-01T05:55:30;101491.59;;;13.43;72.65
29417;BME280;28421;51.030;4.006;2023-05-01T05:58:01;101496.47;;;13.48;72.41
29417;BME280;28421;51.030;4.006;2023-05-01T06:00:27;101485.63;;;13.56;72.01
29417;BME280;28421;51.030;4.006;2023-05-01T06:02:54;101510.13;;;12.82;72.22
29417;BME280;28421;51.030;4.006;2023-05-01T06:05:21;101524.72;;;13.21;72.41
29417;BME280;28421;51.030;4.006;2023-05-01T06:07:47;101499.16;;;13.48;70.83
29417;BME280;28421;51.030;4.006;2023-05-01T06:10:13;101522.25;;;13.66;69.99
29417;BME280;28421;51.030;4.006;2023-05-01T06:12:38;101501.91;;;13.79;69.45
29417;BME280;28421;51.030;4.006;2023-05-01T06:15:06;101488.28;;;13.64;69.39
29417;BME280;28421;51.030;4.006;2023-05-01T06:17:34;101484.13;;;13.53;69.27
29417;BME280;28421;51.030;4.006;2023-05-01T06:20:00;101502.03;;;13.54;68.84
29417;BME280;28421;51.030;4.006;2023-05-01T06:22:26;101500.97;;;13.16;70.41
29417;BME280;28421;51.030;4.006;2023-05-01T06:25:09;101477.81;;;13.30;70.22
29417;BME280;28421;51.030;4.006;2023-05-01T06:27:35;101493.47;;;13.42;70.00
29417;BME280;28421;51.030;4.006;2023-05-01T06:30:01;101498.75;;;13.36;70.60
29417;BME280;28421;51.030;4.006;2023-05-01T06:32:28;101492.13;;;13.38;70.55
29417;BME280;28421;51.030;4.006;2023-05-01T06:34:53;101523.72;;;13.30;70.90
29417;BME280;28421;51.030;4.006;2023-05-01T06:37:19;101526.72;;;13.43;70.99
29417;BME280;28421;51.030;4.006;2023-05-01T06:39:46;101481.56;;;13.12;71.57
29417;BME280;28421;51.030;4.006;2023-05-01T06:42:12;101478.16;;;13.66;70.89
29417;BME280;28421;51.030;4.006;2023-05-01T06:44:41;101479.34;;;13.63;70.24
29417;BME280;28421;51.030;4.006;2023-05-01T06:47:06;101496.19;;;13.74;70.45
29417;BME280;28421;51.030;4.006;2023-05-01T06:49:32;101492.44;;;13.83;70.06
29417;BME280;28421;51.030;4.006;2023-05-01T06:51:59;101482.53;;;13.98;69.17
29417;BME280;28421;51.030;4.006;2023-05-01T06:54:24;101461.38;;;13.79;69.66
29417;BME280;28421;51.030;4.006;2023-05-01T06:56:52;101490.75;;;14.05;68.94
29417;BME280;28421;51.030;4.006;2023-05-01T06:59:17;101494.28;;;13.82;70.66
29417;BME280;28421;51.030;4.006;2023-05-01T07:01:43;101490.72;;;13.90;70.27
29417;BME280;28421;51.030;4.006;2023-05-01T07:04:08;101512.34;;;13.90;70.48
29417;BME280;28421;51.030;4.006;2023-05-01T07:06:35;101451.22;;;13.81;70.59
29417;BME280;28421;51.030;4.006;2023-05-01T07:09:01;101478.66;;;13.70;70.61
29417;BME280;28421;51.030;4.006;2023-05-01T07:11:27;101490.19;;;13.55;71.34
29417;BME280;28421;51.030;4.006;2023-05-01T07:13:53;101491.19;;;13.62;71.42
29417;BME280;28421;51.030;4.006;2023-05-01T07:16:19;101485.88;;;13.77;70.67
29417;BME280;28421;51.030;4.006;2023-05-01T07:18:45;101503.63;;;14.03;70.45
29417;BME280;28421;51.030;4.006;2023-05-01T07:21:10;101488.00;;;13.90;69.66
29417;BME280;28421;51.030;4.006;2023-05-01T07:23:36;101507.31;;;13.79;71.77
29417;BME280;28421;51.030;4.006;2023-05-01T07:26:02;101467.38;;;13.89;70.93
29417;BME280;28421;51.030;4.006;2023-05-01T07:28:28;101509.22;;;14.24;70.63
29417;BME280;28421;51.030;4.006;2023-05-01T07:30:54;101507.72;;;13.99;71.69
29417;BME280;28421;51.030;4.006;2023-05-01T07:33:20;101492.75;;;14.34;69.91
29417;BME280;28421;51.030;4.006;2023-05-01T07:35:45;101509.13;;;14.40;70.17
29417;BME280;28421;51.030;4.006;2023-05-01T07:38:11;101509.44;;;14.23;70.02
29417;BME280;28421;51.030;4.006;2023-05-01T07:40:38;101506.47;;;14.32;70.49
29417;BME280;28421;51.030;4.006;2023-05-01T07:43:03;101525.84;;;14.44;70.13
29417;BME280;28421;51.030;4.006;2023-05-01T07:45:29;101510.78;;;14.41;69.28
29417;BME280;28421;51.030;4.006;2023-05-01T07:47:55;101481.28;;;14.32;69.86
29417;BME280;28421;51.030;4.006;2023-05-01T07:50:21;101522.66;;;14.63;69.42
29417;BME280;28421;51.030;4.006;2023-05-01T07:52:46;101534.50;;;14.39;69.51
29417;BME280;28421;51.030;4.006;2023-05-01T07:55:12;101521.88;;;14.55;68.58
29417;BME280;28421;51.030;4.006;2023-05-01T07:57:38;101516.94;;;14.58;68.86
29417;BME280;28421;51.030;4.006;2023-05-01T08:00:04;101505.00;;;14.53;67.47
29417;BME280;28421;51.030;4.006;2023-05-01T08:02:38;101522.66;;;15.01;66.38
29417;BME280;28421;51.030;4.006;2023-05-01T08:05:05;101549.00;;;15.37;66.79
29417;BME280;28421;51.030;4.006;2023-05-01T08:07:31;101511.25;;;15.50;65.44
29417;BME280;28421;51.030;4.006;2023-05-01T08:09:56;101538.25;;;15.14;66.06
29417;BME280;28421;51.030;4.006;2023-05-01T08:12:22;101537.78;;;15.10;66.67
29417;BME280;28421;51.030;4.006;2023-05-01T08:14:47;101541.16;;;14.75;66.61
29417;BME280;28421;51.030;4.006;2023-05-01T08:17:13;101494.47;;;14.35;66.45
29417;BME280;28421;51.030;4.006;2023-05-01T08:19:39;101542.03;;;14.52;67.61
29417;BME280;28421;51.030;4.006;2023-05-01T08:22:04;101555.72;;;14.74;67.71
29417;BME280;28421;51.030;4.006;2023-05-01T08:24:30;101494.25;;;14.59;67.11
29417;BME280;28421;51.030;4.006;2023-05-01T08:26:56;101541.16;;;15.27;65.81
29417;BME280;28421;51.030;4.006;2023-05-01T08:29:22;101534.16;;;15.18;65.00
29417;BME280;28421;51.030;4.006;2023-05-01T08:31:47;101526.47;;;15.07;65.33
29417;BME280;28421;51.030;4.006;2023-05-01T08:34:13;101548.63;;;15.10;65.62
29417;BME280;28421;51.030;4.006;2023-05-01T08:36:39;101537.97;;;15.24;65.44
29417;BME280;28421;51.030;4.006;2023-05-01T08:39:04;101522.47;;;15.47;63.89
29417;BME280;28421;51.030;4.006;2023-05-01T08:41:31;101558.66;;;15.69;63.24
29417;BME280;28421;51.030;4.006;2023-05-01T08:43:59;101530.09;;;14.99;64.09
29417;BME280;28421;51.030;4.006;2023-05-01T08:46:49;101570.88;;;15.95;63.43
29417;BME280;28421;51.030;4.006;2023-05-01T08:49:18;101566.44;;;16.45;62.32
29417;BME280;28421;51.030;4.006;2023-05-01T08:51:46;101541.91;;;16.16;62.05
29417;BME280;28421;51.030;4.006;2023-05-01T08:54:14;101572.75;;;16.30;62.60
29417;BME280;28421;51.030;4.006;2023-05-01T08:56:42;101557.69;;;15.91;62.14
29417;BME280;28421;51.030;4.006;2023-05-01T08:59:09;101571.41;;;16.41;62.64
29417;BME280;28421;51.030;4.006;2023-05-01T09:01:36;101558.53;;;16.71;60.83
29417;BME280;28421;51.030;4.006;2023-05-01T09:04:02;101542.75;;;16.17;61.65
29417;BME280;28421;51.030;4.006;2023-05-01T09:06:29;101542.59;;;16.40;61.93
29417;BME280;28421;51.030;4.006;2023-05-01T09:08:57;101532.56;;;16.40;61.62
29417;BME280;28421;51.030;4.006;2023-05-01T09:11:23;101562.22;;;17.06;59.74
29417;BME280;28421;51.030;4.006;2023-05-01T09:13:49;101585.34;;;16.38;61.39
29417;BME280;28421;51.030;4.006;2023-05-01T09:16:15;101571.63;;;16.25;61.88
29417;BME280;28421;51.030;4.006;2023-05-01T09:18:41;101575.28;;;16.53;60.54
29417;BME280;28421;51.030;4.006;2023-05-01T09:21:07;101563.13;;;16.49;60.93
29417;BME280;28421;51.030;4.006;2023-05-01T09:23:33;101533.41;;;16.84;59.39
29417;BME280;28421;51.030;4.006;2023-05-01T09:26:03;101560.88;;;17.58;58.40
29417;BME280;28421;51.030;4.006;2023-05-01T09:28:42;101545.97;;;17.13;57.41
29417;BME280;28421;51.030;4.006;2023-05-01T09:31:26;101572.19;;;17.62;57.44
29417;BME280;28421;51.030;4.006;2023-05-01T09:33:58;101542.41;;;17.47;57.55
29417;BME280;28421;51.030;4.006;2023-05-01T09:36:25;101579.47;;;17.55;55.80
29417;BME280;28421;51.030;4.006;2023-05-01T09:38:51;101587.13;;;17.45;56.41
29417;BME280;28421;51.030;4.006;2023-05-01T09:41:17;101567.81;;;17.33;55.50
29417;BME280;28421;51.030;4.006;2023-05-01T09:43:57;101554.13;;;16.92;56.66
29417;BME280;28421;51.030;4.006;2023-05-01T09:46:25;101553.97;;;17.56;57.01
29417;BME280;28421;51.030;4.006;2023-05-01T09:48:56;101560.88;;;17.24;56.19
29417;BME280;28421;51.030;4.006;2023-05-01T09:53:48;101556.56;;;17.36;56.01
29417;BME280;28421;51.030;4.006;2023-05-01T09:56:14;101591.53;;;17.46;56.74
29417;BME280;28421;51.030;4.006;2023-05-01T09:58:40;101560.22;;;17.56;56.23
29417;BME280;28421;51.030;4.006;2023-05-01T10:01:05;101581.75;;;17.51;54.41
29417;BME280;28421;51.030;4.006;2023-05-01T10:03:33;101557.44;;;16.87;55.37
29417;BME280;28421;51.030;4.006;2023-05-01T10:05:58;101605.78;;;17.76;54.52
29417;BME280;28421;51.030;4.006;2023-05-01T10:08:46;101601.47;;;17.32;54.49
29417;BME280;28421;51.030;4.006;2023-05-01T10:11:12;101590.72;;;17.17;54.76
29417;BME280;28421;51.030;4.006;2023-05-01T10:13:38;101594.56;;;17.01;54.37
29417;BME280;28421;51.030;4.006;2023-05-01T10:16:04;101606.03;;;17.25;55.20
29417;BME280;28421;51.030;4.006;2023-05-01T10:18:35;101552.41;;;17.40;55.26
29417;BME280;28421;51.030;4.006;2023-05-01T10:21:04;101589.38;;;17.06;54.19
29417;BME280;28421;51.030;4.006;2023-05-01T10:23:31;101570.31;;;17.28;53.68
29417;BME280;28421;51.030;4.006;2023-05-01T10:25:59;101548.66;;;17.76;53.84
29417;BME280;28421;51.030;4.006;2023-05-01T10:28:25;101606.63;;;17.76;53.36
29417;BME280;28421;51.030;4.006;2023-05-01T10:30:54;101559.75;;;17.81;52.91
29417;BME280;28421;51.030;4.006;2023-05-01T10:33:21;101596.56;;;18.25;52.29
29417;BME280;28421;51.030;4.006;2023-05-01T10:35:53;101606.38;;;18.19;51.73
29417;BME280;28421;51.030;4.006;2023-05-01T10:38:32;101568.19;;;17.99;52.22
29417;BME280;28421;51.030;4.006;2023-05-01T10:41:00;101601.28;;;17.96;51.50
29417;BME280;28421;51.030;4.006;2023-05-01T10:43:30;101563.94;;;17.49;51.21
29417;BME280;28421;51.030;4.006;2023-05-01T10:51:19;101611.81;;;18.12;51.93
29417;BME280;28421;51.030;4.006;2023-05-01T10:56:40;101581.22;;;18.10;50.25
29417;BME280;28421;51.030;4.006;2023-05-01T10:59:09;101588.09;;;17.65;50.64
29417;BME280;28421;51.030;4.006;2023-05-01T11:01:47;101564.25;;;18.02;49.33
29417;BME280;28421;51.030;4.006;2023-05-01T11:12:04;101596.56;;;17.42;51.24
29417;BME280;28421;51.030;4.006;2023-05-01T11:22:39;101606.84;;;17.81;49.26
29417;BME280;28421;51.030;4.006;2023-05-01T11:25:30;101616.91;;;18.29;49.76
29417;BME280;28421;51.030;4.006;2023-05-01T11:28:19;101606.47;;;18.52;48.68
29417;BME280;28421;51.030;4.006;2023-05-01T11:30:45;101551.22;;;18.85;47.00
29417;BME280;28421;51.030;4.006;2023-05-01T11:33:22;101578.06;;;18.88;47.75
29417;BME280;28421;51.030;4.006;2023-05-01T11:35:55;101596.84;;;18.50;48.08
29417;BME280;28421;51.030;4.006;2023-05-01T11:38:21;101554.69;;;18.32;48.73
29417;BME280;28421;51.030;4.006;2023-05-01T11:40:53;101554.31;;;18.49;47.75
29417;BME280;28421;51.030;4.006;2023-05-01T11:43:22;101612.91;;;18.31;47.90
29417;BME280;28421;51.030;4.006;2023-05-01T11:45:51;101569.47;;;18.03;48.92
29417;BME280;28421;51.030;4.006;2023-05-01T11:48:27;101578.28;;;18.05;48.59
29417;BME280;28421;51.030;4.006;2023-05-01T11:50:53;101588.28;;;18.59;48.51
29417;BME280;28421;51.030;4.006;2023-05-01T11:53:18;101572.53;;;18.48;47.68
29417;BME280;28421;51.030;4.006;2023-05-01T11:55:44;101566.22;;;18.41;47.61
29417;BME280;28421;51.030;4.006;2023-05-01T11:58:10;101581.53;;;18.49;46.63
29417;BME280;28421;51.030;4.006;2023-05-01T12:00:38;101610.50;;;18.70;46.71
29417;BME280;28421;51.030;4.006;2023-05-01T12:03:13;101588.31;;;18.73;47.50
29417;BME280;28421;51.030;4.006;2023-05-01T12:05:41;101579.31;;;18.72;46.27
29417;BME280;28421;51.030;4.006;2023-05-01T12:08:19;101618.75;;;18.22;46.74
29417;BME280;28421;51.030;4.006;2023-05-01T12:10:48;101588.72;;;18.02;46.57
29417;BME280;28421;51.030;4.006;2023-05-01T12:13:14;101616.75;;;17.96;47.40
29417;BME280;28421;51.030;4.006;2023-05-01T12:15:45;101617.91;;;18.21;47.27
29417;BME280;28421;51.030;4.006;2023-05-01T12:18:11;101624.63;;;18.32;46.14
29417;BME280;28421;51.030;4.006;2023-05-01T12:20:38;101622.63;;;18.54;46.17
29417;BME280;28421;51.030;4.006;2023-05-01T12:23:06;101623.38;;;18.28;47.46
29417;BME280;28421;51.030;4.006;2023-05-01T12:25:33;101598.94;;;18.54;47.34
29417;BME280;28421;51.030;4.006;2023-05-01T12:28:16;101599.38;;;18.64;47.61
29417;BME280;28421;51.030;4.006;2023-05-01T12:30:47;101605.72;;;18.98;47.14
29417;BME280;28421;51.030;4.006;2023-05-01T12:33:16;101570.84;;;18.41;47.54
29417;BME280;28421;51.030;4.006;2023-05-01T12:35:43;101593.50;;;17.93;48.21
29417;BME280;28421;51.030;4.006;2023-05-01T12:38:13;101629.84;;;17.79;48.94
29417;BME280;28421;51.030;4.006;2023-05-01T12:40:49;101621.16;;;18.03;48.95
29417;BME280;28421;51.030;4.006;2023-05-01T12:43:17;101616.38;;;18.05;49.32
29417;BME280;28421;51.030;4.006;2023-05-01T12:45:43;101612.28;;;18.29;49.37
29417;BME280;28421;51.030;4.006;2023-05-01T12:48:12;101566.84;;;18.36;48.91
29417;BME280;28421;51.030;4.006;2023-05-01T12:50:40;101628.00;;;18.41;48.46
29417;BME280;28421;51.030;4.006;2023-05-01T12:53:07;101578.91;;;18.01;48.02
29417;BME280;28421;51.030;4.006;2023-05-01T12:55:48;101615.13;;;18.08;47.92
29417;BME280;28421;51.030;4.006;2023-05-01T12:58:14;101606.84;;;18.36;48.30
29417;BME280;28421;51.030;4.006;2023-05-01T13:00:44;101560.78;;;18.34;48.57
29417;BME280;28421;51.030;4.006;2023-05-01T13:03:10;101607.88;;;18.22;48.18
29417;BME280;28421;51.030;4.006;2023-05-01T13:05:36;101621.59;;;18.07;49.06
29417;BME280;28421;51.030;4.006;2023-05-01T13:08:13;101592.16;;;18.24;49.19
29417;BME280;28421;51.030;4.006;2023-05-01T13:10:39;101626.56;;;18.38;49.52
29417;BME280;28421;51.030;4.006;2023-05-01T13:13:06;101620.47;;;18.29;48.60
29417;BME280;28421;51.030;4.006;2023-05-01T13:15:32;101622.38;;;18.42;49.19
29417;BME280;28421;51.030;4.006;2023-05-01T13:18:03;101619.34;;;18.72;48.83
29417;BME280;28421;51.030;4.006;2023-05-01T13:20:29;101592.94;;;18.92;47.86
29417;BME280;28421;51.030;4.006;2023-05-01T13:22:55;101609.88;;;18.68;48.46
29417;BME280;28421;51.030;4.006;2023-05-01T13:25:20;101597.88;;;18.49;48.51
29417;BME280;28421;51.030;4.006;2023-05-01T13:27:52;101564.00;;;18.78;47.55
29417;BME280;28421;51.030;4.006;2023-05-01T13:30:19;101621.16;;;18.58;48.33
29417;BME280;28421;51.030;4.006;2023-05-01T13:32:48;101611.53;;;18.55;47.68
29417;BME280;28421;51.030;4.006;2023-05-01T13:35:24;101615.69;;;18.51;48.83
29417;BME280;28421;51.030;4.006;2023-05-01T13:37:51;101612.63;;;18.94;48.26
29417;BME280;28421;51.030;4.006;2023-05-01T13:40:17;101615.50;;;18.66;47.42
29417;BME280;28421;51.030;4.006;2023-05-01T13:42:44;101597.72;;;18.63;47.75
29417;BME280;28421;51.030;4.006;2023-05-01T13:45:11;101607.03;;;18.21;47.83
29417;BME280;28421;51.030;4.006;2023-05-01T13:47:38;101609.13;;;18.26;47.76
29417;BME280;28421;51.030;4.006;2023-05-01T13:50:08;101630.56;;;18.49;48.00
29417;BME280;28421;51.030;4.006;2023-05-01T13:52:40;101619.97;;;18.80;47.21
29417;BME280;28421;51.030;4.006;2023-05-01T13:55:06;101610.69;;;18.61;46.87
29417;BME280;28421;51.030;4.006;2023-05-01T13:57:35;101603.19;;;18.90;46.90
29417;BME280;28421;51.030;4.006;2023-05-01T14:00:01;101601.53;;;18.76;46.82
29417;BME280;28421;51.030;4.006;2023-05-01T14:02:45;101613.47;;;18.81;46.84
29417;BME280;28421;51.030;4.006;2023-05-01T14:05:13;101616.63;;;19.05;47.52
29417;BME280;28421;51.030;4.006;2023-05-01T14:07:43;101610.56;;;19.16;47.69
29417;BME280;28421;51.030;4.006;2023-05-01T14:10:10;101604.63;;;19.72;45.55
29417;BME280;28421;51.030;4.006;2023-05-01T14:12:37;101612.03;;;19.25;46.33
29417;BME280;28421;51.030;4.006;2023-05-01T14:15:03;101608.69;;;19.17;46.27
29417;BME280;28421;51.030;4.006;2023-05-01T14:17:33;101603.00;;;18.72;46.67
29417;BME280;28421;51.030;4.006;2023-05-01T14:20:00;101639.56;;;17.95;48.70
29417;BME280;28421;51.030;4.006;2023-05-01T14:22:45;101622.22;;;18.02;49.33
29417;BME280;28421;51.030;4.006;2023-05-01T14:25:19;101634.72;;;18.38;48.59
29417;BME280;28421;51.030;4.006;2023-05-01T14:27:46;101623.34;;;18.96;48.46
29417;BME280;28421;51.030;4.006;2023-05-01T14:30:38;101631.09;;;19.19;48.25
29417;BME280;28421;51.030;4.006;2023-05-01T14:33:11;101595.88;;;18.91;48.04
29417;BME280;28421;51.030;4.006;2023-05-01T14:35:48;101622.06;;;18.85;48.29
29417;BME280;28421;51.030;4.006;2023-05-01T14:38:16;101610.56;;;18.83;48.69
29417;BME280;28421;51.030;4.006;2023-05-01T14:40:43;101572.06;;;18.25;48.40
29417;BME280;28421;51.030;4.006;2023-05-01T14:43:09;101608.03;;;18.20;49.06
29417;BME280;28421;51.030;4.006;2023-05-01T14:45:39;101603.28;;;18.35;49.22
29417;BME280;28421;51.030;4.006;2023-05-01T14:48:06;101571.88;;;18.39;48.51
29417;BME280;28421;51.030;4.006;2023-05-01T14:50:40;101633.31;;;18.69;47.84
29417;BME280;28421;51.030;4.006;2023-05-01T14:53:34;101562.22;;;18.37;47.62
29417;BME280;28421;51.030;4.006;2023-05-01T14:56:20;101578.78;;;18.35;47.50
29417;BME280;28421;51.030;4.006;2023-05-01T14:59:14;101581.78;;;18.60;46.34
29417;BME280;28421;51.030;4.006;2023-05-01T15:02:12;101585.53;;;18.53;46.34
29417;BME280;28421;51.030;4.006;2023-05-01T15:05:03;101596.81;;;18.43;47.84
29417;BME280;28421;51.030;4.006;2023-05-01T15:07:39;101606.66;;;18.37;46.11
29417;BME280;28421;51.030;4.006;2023-05-01T15:10:19;101592.28;;;18.02;45.30
29417;BME280;28421;51.030;4.006;2023-05-01T15:12:47;101652.72;;;18.39;46.25
29417;BME280;28421;51.030;4.006;2023-05-01T15:15:13;101641.59;;;18.27;46.26
29417;BME280;28421;51.030;4.006;2023-05-01T15:17:38;101657.38;;;18.52;46.91
29417;BME280;28421;51.030;4.006;2023-05-01T15:20:04;101656.03;;;18.28;47.19
29417;BME280;28421;51.030;4.006;2023-05-01T15:22:30;101622.16;;;17.89;47.36
29417;BME280;28421;51.030;4.006;2023-05-01T15:24:56;101646.19;;;17.57;49.14
29417;BME280;28421;51.030;4.006;2023-05-01T15:27:21;101613.78;;;17.84;48.88
29417;BME280;28421;51.030;4.006;2023-05-01T15:29:47;101655.38;;;18.19;49.65
29417;BME280;28421;51.030;4.006;2023-05-01T15:32:13;101644.66;;;18.11;48.78
29417;BME280;28421;51.030;4.006;2023-05-01T15:34:38;101667.91;;;18.13;51.63
29417;BME280;28421;51.030;4.006;2023-05-01T15:37:05;101674.06;;;18.35;50.79
29417;BME280;28421;51.030;4.006;2023-05-01T15:39:31;101665.22;;;18.20;50.64
29417;BME280;28421;51.030;4.006;2023-05-01T15:41:57;101680.88;;;18.11;51.03
29417;BME280;28421;51.030;4.006;2023-05-01T15:44:23;101668.97;;;17.78;51.98
29417;BME280;28421;51.030;4.006;2023-05-01T15:46:50;101680.19;;;17.96;51.56
29417;BME280;28421;51.030;4.006;2023-05-01T15:49:17;101678.53;;;17.74;51.33
29417;BME280;28421;51.030;4.006;2023-05-01T15:51:42;101674.81;;;17.53;53.28
29417;BME280;28421;51.030;4.006;2023-05-01T15:54:08;101694.81;;;17.67;52.60
29417;BME280;28421;51.030;4.006;2023-05-01T15:56:35;101682.13;;;17.46;52.90
29417;BME280;28421;51.030;4.006;2023-05-01T15:59:05;101690.00;;;17.41;53.24
29417;BME280;28421;51.030;4.006;2023-05-01T16:01:31;101678.53;;;16.96;54.06
29417;BME280;28421;51.030;4.006;2023-05-01T16:03:58;101703.16;;;17.16;54.15
29417;BME280;28421;51.030;4.006;2023-05-01T16:06:23;101698.44;;;17.46;53.91
29417;BME280;28421;51.030;4.006;2023-05-01T16:08:49;101689.44;;;17.03;54.06
29417;BME280;28421;51.030;4.006;2023-05-01T16:11:15;101698.19;;;17.20;54.21
29417;BME280;28421;51.030;4.006;2023-05-01T16:13:41;101699.22;;;16.97;54.96
29417;BME280;28421;51.030;4.006;2023-05-01T16:16:08;101687.91;;;17.15;53.55
29417;BME280;28421;51.030;4.006;2023-05-01T16:18:34;101687.31;;;16.98;53.86
29417;BME280;28421;51.030;4.006;2023-05-01T16:21:01;101676.66;;;16.97;53.38
29417;BME280;28421;51.030;4.006;2023-05-01T16:23:26;101697.97;;;17.00;53.84
29417;BME280;28421;51.030;4.006;2023-05-01T16:25:52;101694.69;;;17.04;54.46
29417;BME280;28421;51.030;4.006;2023-05-01T16:28:17;101707.00;;;17.22;54.11
29417;BME280;28421;51.030;4.006;2023-05-01T16:30:43;101704.53;;;17.05;54.43
29417;BME280;28421;51.030;4.006;2023-05-01T16:33:16;101704.38;;;17.35;53.51
29417;BME280;28421;51.030;4.006;2023-05-01T16:35:42;101703.72;;;17.33;53.55
29417;BME280;28421;51.030;4.006;2023-05-01T16:38:07;101707.25;;;17.05;52.08